Time;durP1;ratioP1;P1;durP2;ratioP2;P2;SDS_P1;SDS_P2;PMS_P1;PMS_P2;Temp;Humidity;BMP_temperature;BMP_pressure;BME280_temperature;BME280_humidity;BME280_pressure;Samples;Min_cycle;Max_cycle;Signal;HPM_P1;HPM_P2
2023/03/16 00:00:13;;;;;;;3.53;0.82;;;;;;;;;;5136736;27;20413;-63
2023/03/16 00:02:44;;;;;;;1.17;0.90;;;;;;;;;;5136621;27;20042;-63
2023/03/16 00:05:11;;;;;;;2.05;1.17;;;;;;;;;;5135789;27;20378;-63
2023/03/16 00:07:38;;;;;;;0.80;0.80;;;;;;;;;;5136201;27;20149;-63
2023/03/16 00:10:04;;;;;;;1.40;1.00;;;;;;;;;;5136492;27;20078;-63
2023/03/16 00:12:33;;;;;;;2.55;1.30;;;;;;;;;;5135768;27;20055;-63
2023/03/16 00:14:59;;;;;;;3.03;1.13;;;;;;;;;;5136363;27;20071;-63
2023/03/16 00:17:25;;;;;;;2.97;1.60;;;;;;;;;;5135850;27;20039;-63
2023/03/16 00:19:55;;;;;;;2.28;1.10;;;;;;;;;;5136736;27;20058;-63
2023/03/16 00:22:29;;;;;;;1.15;1.05;;;;;;;;;;5118398;27;20053;-62
2023/03/16 00:24:56;;;;;;;2.78;1.17;;;;;;;;;;5138343;27;20043;-64
2023/03/16 00:27:22;;;;;;;1.60;0.70;;;;;;;;;;5138395;27;20045;-63
2023/03/16 00:29:54;;;;;;;2.28;1.17;;;;;;;;;;5137468;27;20047;-63
2023/03/16 00:32:21;;;;;;;2.77;1.43;;;;;;;;;;5134334;27;20074;-63
2023/03/16 00:34:47;;;;;;;1.33;1.13;;;;;;;;;;5137760;27;20397;-63
2023/03/16 00:37:14;;;;;;;3.40;1.30;;;;;;;;;;5130925;27;20050;-63
2023/03/16 00:39:41;;;;;;;2.88;1.10;;;;;;;;;;5130035;27;20054;-63
2023/03/16 00:42:08;;;;;;;1.38;1.23;;;;;;;;;;5134505;27;20038;-63
2023/03/16 00:44:34;;;;;;;3.33;1.52;;;;;;;;;;5135678;27;20095;-63
2023/03/16 00:47:00;;;;;;;1.67;1.17;;;;;;;;;;5140833;27;20046;-63
2023/03/16 00:49:26;;;;;;;5.00;1.92;;;;;;;;;;5134338;27;20401;-63
2023/03/16 00:51:52;;;;;;;2.17;1.42;;;;;;;;;;5136273;27;21068;-63
2023/03/16 00:54:18;;;;;;;1.77;1.48;;;;;;;;;;5134577;27;20093;-63
2023/03/16 00:56:45;;;;;;;2.88;1.38;;;;;;;;;;5134177;27;20425;-63
2023/03/16 00:59:11;;;;;;;1.25;1.02;;;;;;;;;;5136794;27;20409;-64
2023/03/16 01:01:38;;;;;;;2.40;1.48;;;;;;;;;;5133568;27;20058;-64
2023/03/16 01:04:04;;;;;;;2.80;1.50;;;;;;;;;;5133963;27;20042;-63
2023/03/16 01:06:30;;;;;;;3.25;1.30;;;;;;;;;;5134838;27;20058;-63
2023/03/16 01:08:56;;;;;;;3.08;1.40;;;;;;;;;;5136108;27;20058;-63
2023/03/16 01:11:23;;;;;;;5.18;1.35;;;;;;;;;;5135532;27;20572;-63
2023/03/16 01:13:49;;;;;;;1.95;1.30;;;;;;;;;;5133583;27;20039;-63
2023/03/16 01:16:18;;;;;;;5.10;1.65;;;;;;;;;;5132829;27;20910;-63
2023/03/16 01:18:45;;;;;;;2.38;1.60;;;;;;;;;;5131024;27;20086;-64
2023/03/16 01:21:14;;;;;;;3.88;1.50;;;;;;;;;;5114567;27;20086;-64
2023/03/16 01:23:42;;;;;;;4.85;1.98;;;;;;;;;;5135215;27;20046;-64
2023/03/16 01:26:08;;;;;;;3.47;1.30;;;;;;;;;;5137581;27;20046;-63
2023/03/16 01:28:34;;;;;;;3.17;1.83;;;;;;;;;;5134513;27;20054;-63
2023/03/16 01:31:08;;;;;;;2.40;1.50;;;;;;;;;;5134836;27;20103;-64
2023/03/16 01:33:34;;;;;;;4.15;2.00;;;;;;;;;;5133216;27;20054;-63
2023/03/16 01:36:14;;;;;;;2.50;1.70;;;;;;;;;;5132429;27;20099;-64
2023/03/16 01:38:41;;;;;;;4.45;1.60;;;;;;;;;;5136544;27;20058;-63
2023/03/16 01:41:07;;;;;;;3.28;1.55;;;;;;;;;;5133059;27;20043;-64
2023/03/16 01:43:36;;;;;;;6.70;1.80;;;;;;;;;;5133573;27;20085;-63
2023/03/16 01:46:05;;;;;;;2.88;1.60;;;;;;;;;;5134783;27;20043;-63
2023/03/16 01:48:49;;;;;;;2.78;2.33;;;;;;;;;;5134844;27;20047;-63
2023/03/16 01:51:20;;;;;;;3.15;1.65;;;;;;;;;;5134955;27;20553;-63
2023/03/16 01:53:47;;;;;;;4.50;1.45;;;;;;;;;;5134472;27;20042;-63
2023/03/16 01:56:15;;;;;;;2.13;1.55;;;;;;;;;;5134394;27;20427;-64
2023/03/16 01:58:42;;;;;;;2.65;2.15;;;;;;;;;;5136464;27;20074;-63
2023/03/16 02:01:08;;;;;;;3.40;1.73;;;;;;;;;;5137133;27;20109;-64
2023/03/16 02:03:34;;;;;;;3.08;2.00;;;;;;;;;;5132858;27;20043;-64
2023/03/16 02:06:06;;;;;;;3.15;2.13;;;;;;;;;;5133319;27;20090;-63
2023/03/16 02:08:33;;;;;;;2.67;1.55;;;;;;;;;;5136540;27;20061;-63
2023/03/16 02:10:59;;;;;;;2.75;2.33;;;;;;;;;;5133340;27;20079;-64
2023/03/16 02:13:28;;;;;;;3.47;2.00;;;;;;;;;;5135112;27;20056;-63
2023/03/16 02:15:54;;;;;;;4.80;2.50;;;;;;;;;;5134748;27;20075;-63
2023/03/16 02:18:21;;;;;;;2.85;2.15;;;;;;;;;;5137499;27;20061;-63
2023/03/16 02:20:47;;;;;;;3.70;2.13;;;;;;;;;;5136580;27;20043;-63
2023/03/16 02:23:18;;;;;;;2.80;2.00;;;;;;;;;;5133495;27;20053;-64
2023/03/16 02:25:44;;;;;;;2.10;1.90;;;;;;;;;;5135006;27;20043;-62
2023/03/16 02:28:16;;;;;;;2.90;1.90;;;;;;;;;;5134367;27;20046;-61
2023/03/16 02:30:42;;;;;;;2.28;1.77;;;;;;;;;;5133411;27;20039;-64
2023/03/16 02:33:08;;;;;;;3.47;1.83;;;;;;;;;;5136702;27;20126;-63
2023/03/16 02:35:34;;;;;;;2.58;2.30;;;;;;;;;;5138205;27;20061;-63
2023/03/16 02:38:00;;;;;;;3.47;1.95;;;;;;;;;;5138187;27;20621;-64
2023/03/16 02:40:31;;;;;;;2.20;2.00;;;;;;;;;;5135287;27;20051;-62
2023/03/16 02:43:18;;;;;;;2.85;1.67;;;;;;;;;;5138660;27;20053;-62
2023/03/16 02:45:50;;;;;;;2.17;2.00;;;;;;;;;;5135866;27;20142;-64
2023/03/16 02:48:21;;;;;;;4.13;2.28;;;;;;;;;;5136896;27;20509;-64
2023/03/16 02:50:48;;;;;;;2.28;2.05;;;;;;;;;;5136542;27;20035;-64
2023/03/16 02:53:14;;;;;;;2.67;2.28;;;;;;;;;;5136939;27;20038;-64
2023/03/16 02:55:40;;;;;;;5.30;2.85;;;;;;;;;;5138454;27;20039;-61
2023/03/16 02:58:06;;;;;;;3.30;2.38;;;;;;;;;;5139088;27;20043;-62
2023/03/16 03:00:32;;;;;;;5.45;2.58;;;;;;;;;;5137839;27;20116;-62
2023/03/16 03:02:58;;;;;;;2.83;1.85;;;;;;;;;;5138983;27;20046;-62
2023/03/16 03:05:24;;;;;;;4.95;2.85;;;;;;;;;;5139551;27;20447;-62
2023/03/16 03:07:50;;;;;;;2.88;2.25;;;;;;;;;;5137340;27;20051;-61
2023/03/16 03:10:16;;;;;;;4.20;2.78;;;;;;;;;;5138327;27;20046;-62
2023/03/16 03:12:42;;;;;;;5.85;3.13;;;;;;;;;;5137729;27;20767;-62
2023/03/16 03:15:09;;;;;;;5.68;2.85;;;;;;;;;;5138115;27;20477;-62
2023/03/16 03:17:36;;;;;;;4.05;2.65;;;;;;;;;;5138017;27;20051;-61
2023/03/16 03:20:12;;;;;;;6.13;3.33;;;;;;;;;;5138770;27;20054;-62
2023/03/16 03:22:38;;;;;;;5.28;2.67;;;;;;;;;;5138653;27;20051;-62
2023/03/16 03:25:04;;;;;;;3.55;2.80;;;;;;;;;;5139228;27;20035;-62
2023/03/16 03:27:32;;;;;;;3.80;2.92;;;;;;;;;;5137737;27;20061;-62
2023/03/16 03:29:58;;;;;;;4.88;3.53;;;;;;;;;;5120259;27;20094;-62
2023/03/16 03:32:24;;;;;;;5.18;3.42;;;;;;;;;;5138083;27;20046;-63
2023/03/16 03:34:51;;;;;;;7.30;3.80;;;;;;;;;;5136012;27;20200;-62
2023/03/16 03:37:18;;;;;;;5.10;3.42;;;;;;;;;;5138032;27;20043;-63
2023/03/16 03:39:44;;;;;;;3.97;2.80;;;;;;;;;;5136584;27;20204;-62
2023/03/16 03:42:11;;;;;;;3.95;3.50;;;;;;;;;;5137018;27;20555;-63
2023/03/16 03:44:37;;;;;;;6.57;4.00;;;;;;;;;;5135613;27;20492;-63
2023/03/16 03:47:04;;;;;;;4.45;3.95;;;;;;;;;;5135948;27;20114;-63
2023/03/16 03:49:30;;;;;;;5.35;3.50;;;;;;;;;;5136406;27;20528;-63
2023/03/16 03:51:58;;;;;;;7.50;3.50;;;;;;;;;;5137646;27;20035;-62
2023/03/16 03:54:24;;;;;;;5.35;3.10;;;;;;;;;;5135490;27;20043;-63
2023/03/16 03:56:53;;;;;;;8.90;4.15;;;;;;;;;;5136192;27;20050;-63
2023/03/16 03:59:21;;;;;;;5.75;3.80;;;;;;;;;;5137095;27;20043;-63
2023/03/16 04:01:47;;;;;;;4.38;3.47;;;;;;;;;;5136765;27;20046;-63
2023/03/16 04:04:13;;;;;;;3.85;3.33;;;;;;;;;;5136110;27;20393;-63
2023/03/16 04:06:40;;;;;;;4.05;3.15;;;;;;;;;;5136755;27;20401;-63
2023/03/16 04:09:06;;;;;;;4.05;3.28;;;;;;;;;;5136480;27;20070;-62
2023/03/16 04:11:32;;;;;;;4.30;3.40;;;;;;;;;;5135933;27;20051;-63
2023/03/16 04:13:58;;;;;;;4.93;3.25;;;;;;;;;;5136189;27;20576;-62
2023/03/16 04:16:25;;;;;;;5.57;4.13;;;;;;;;;;5134581;27;20042;-63
2023/03/16 04:18:53;;;;;;;5.45;3.55;;;;;;;;;;5135926;27;20497;-62
2023/03/16 04:21:20;;;;;;;3.97;3.10;;;;;;;;;;5136327;27;20031;-63
2023/03/16 04:23:46;;;;;;;4.97;3.20;;;;;;;;;;5135452;27;20047;-62
2023/03/16 04:26:12;;;;;;;5.47;3.25;;;;;;;;;;5135741;27;20156;-63
2023/03/16 04:28:38;;;;;;;5.35;3.30;;;;;;;;;;5135926;27;20139;-63
2023/03/16 04:31:05;;;;;;;6.97;3.10;;;;;;;;;;5135941;27;20035;-63
2023/03/16 04:33:32;;;;;;;5.07;3.40;;;;;;;;;;5136846;27;20050;-62
2023/03/16 04:35:58;;;;;;;4.90;2.85;;;;;;;;;;5134857;27;20035;-62
2023/03/16 04:38:24;;;;;;;4.15;3.20;;;;;;;;;;5135628;27;20619;-63
2023/03/16 04:40:50;;;;;;;4.18;2.80;;;;;;;;;;5132148;27;20047;-63
2023/03/16 04:43:17;;;;;;;4.35;3.05;;;;;;;;;;5135092;27;20049;-63
2023/03/16 04:45:43;;;;;;;5.78;3.33;;;;;;;;;;5134333;27;20138;-63
2023/03/16 04:48:09;;;;;;;4.40;3.05;;;;;;;;;;5136314;27;20035;-63
2023/03/16 04:50:35;;;;;;;3.45;2.60;;;;;;;;;;5135531;27;20120;-62
2023/03/16 04:53:01;;;;;;;3.35;3.05;;;;;;;;;;5135919;27;20111;-63
2023/03/16 04:55:27;;;;;;;5.25;2.95;;;;;;;;;;5135609;27;20042;-63
2023/03/16 04:57:53;;;;;;;4.00;2.92;;;;;;;;;;5135655;27;20043;-63
2023/03/16 05:00:20;;;;;;;5.30;2.17;;;;;;;;;;5134858;27;20505;-63
2023/03/16 05:02:46;;;;;;;2.83;2.40;;;;;;;;;;5135425;27;20061;-63
2023/03/16 05:05:13;;;;;;;5.22;2.75;;;;;;;;;;5135104;27;20042;-62
2023/03/16 05:07:40;;;;;;;4.35;3.13;;;;;;;;;;5134390;27;20055;-63
2023/03/16 05:10:07;;;;;;;4.97;3.00;;;;;;;;;;5135548;27;20565;-63
2023/03/16 05:12:33;;;;;;;4.25;3.17;;;;;;;;;;5135188;27;20047;-63
2023/03/16 05:14:59;;;;;;;4.55;4.03;;;;;;;;;;5116768;27;20370;-63
2023/03/16 05:17:25;;;;;;;8.80;3.42;;;;;;;;;;5135896;27;20050;-62
2023/03/16 05:19:51;;;;;;;4.78;2.85;;;;;;;;;;5134445;27;20039;-63
2023/03/16 05:22:17;;;;;;;3.03;2.72;;;;;;;;;;5137844;27;20370;-63
2023/03/16 05:24:43;;;;;;;5.90;3.13;;;;;;;;;;5136763;27;20122;-62
2023/03/16 05:27:09;;;;;;;6.15;2.85;;;;;;;;;;5135034;27;20074;-62
2023/03/16 05:29:35;;;;;;;6.80;3.08;;;;;;;;;;5136821;27;20070;-63
2023/03/16 05:32:01;;;;;;;4.05;3.20;;;;;;;;;;5138016;27;20058;-63
2023/03/16 05:34:27;;;;;;;3.13;2.85;;;;;;;;;;5133629;27;20129;-63
2023/03/16 05:36:53;;;;;;;5.50;3.20;;;;;;;;;;5136069;27;20126;-62
2023/03/16 05:39:19;;;;;;;4.68;2.90;;;;;;;;;;5137824;27;20599;-63
2023/03/16 05:41:45;;;;;;;4.72;2.83;;;;;;;;;;5134309;27;20511;-64
2023/03/16 05:44:12;;;;;;;5.20;3.00;;;;;;;;;;5136184;27;20074;-62
2023/03/16 05:46:38;;;;;;;5.35;3.15;;;;;;;;;;5114099;27;20055;-63
2023/03/16 05:49:04;;;;;;;5.50;3.13;;;;;;;;;;5114712;27;20046;-63
2023/03/16 05:51:30;;;;;;;4.18;3.22;;;;;;;;;;5138852;27;20811;-63
2023/03/16 05:53:56;;;;;;;5.38;4.25;;;;;;;;;;5135147;27;20043;-62
2023/03/16 05:56:26;;;;;;;6.18;3.28;;;;;;;;;;5131298;27;20043;-63
2023/03/16 05:58:53;;;;;;;3.85;3.38;;;;;;;;;;5134103;27;20158;-63
2023/03/16 06:01:19;;;;;;;6.22;4.00;;;;;;;;;;5135287;27;20034;-63
2023/03/16 06:03:46;;;;;;;6.90;3.67;;;;;;;;;;5131661;27;20061;-63
2023/03/16 06:06:12;;;;;;;4.00;2.83;;;;;;;;;;5135257;27;20035;-62
2023/03/16 06:08:38;;;;;;;3.80;3.40;;;;;;;;;;5132629;27;20051;-63
2023/03/16 06:11:04;;;;;;;4.47;3.35;;;;;;;;;;5131583;27;20041;-63
2023/03/16 06:13:30;;;;;;;3.38;2.92;;;;;;;;;;5134896;27;20050;-63
2023/03/16 06:15:56;;;;;;;3.90;3.42;;;;;;;;;;5136645;27;20054;-62
2023/03/16 06:18:22;;;;;;;5.13;3.10;;;;;;;;;;5132347;27;20541;-63
2023/03/16 06:20:48;;;;;;;6.03;3.33;;;;;;;;;;5134451;27;20547;-63
2023/03/16 06:23:14;;;;;;;5.22;3.38;;;;;;;;;;5133639;27;20283;-63
2023/03/16 06:25:40;;;;;;;5.95;4.35;;;;;;;;;;5132885;27;20050;-62
2023/03/16 06:28:07;;;;;;;5.53;3.60;;;;;;;;;;5136811;27;20054;-63
2023/03/16 06:30:33;;;;;;;7.90;3.78;;;;;;;;;;5133071;27;20069;-63
2023/03/16 06:32:59;;;;;;;5.40;3.65;;;;;;;;;;5131736;27;20474;-63
2023/03/16 06:35:25;;;;;;;3.95;3.25;;;;;;;;;;5130017;27;20050;-63
2023/03/16 06:37:51;;;;;;;6.63;3.78;;;;;;;;;;5133749;27;20042;-63
2023/03/16 06:40:17;;;;;;;4.57;3.47;;;;;;;;;;5134309;27;20047;-63
2023/03/16 06:42:43;;;;;;;8.88;4.55;;;;;;;;;;5134018;27;20043;-63
2023/03/16 06:45:10;;;;;;;4.22;3.80;;;;;;;;;;5135566;27;20449;-63
2023/03/16 06:47:36;;;;;;;4.28;3.35;;;;;;;;;;5134038;27;20058;-63
2023/03/16 06:50:03;;;;;;;4.60;3.50;;;;;;;;;;5131988;27;20035;-63
2023/03/16 06:52:30;;;;;;;4.65;3.80;;;;;;;;;;5132967;27;20511;-63
2023/03/16 06:54:57;;;;;;;3.88;3.50;;;;;;;;;;5130825;27;20058;-63
2023/03/16 06:57:23;;;;;;;6.82;3.83;;;;;;;;;;5134545;27;20485;-63
2023/03/16 06:59:49;;;;;;;6.75;4.15;;;;;;;;;;5130716;27;20043;-63
2023/03/16 07:02:16;;;;;;;4.60;3.65;;;;;;;;;;5131492;27;20039;-63
2023/03/16 07:04:42;;;;;;;6.10;4.00;;;;;;;;;;5132974;27;20046;-63
2023/03/16 07:07:10;;;;;;;7.60;3.67;;;;;;;;;;5133563;27;20038;-62
2023/03/16 07:09:36;;;;;;;5.72;4.03;;;;;;;;;;5132068;27;20051;-62
2023/03/16 07:12:02;;;;;;;4.85;3.90;;;;;;;;;;5132582;27;20058;-63
2023/03/16 07:14:28;;;;;;;4.85;4.35;;;;;;;;;;5130379;27;20035;-62
2023/03/16 07:16:55;;;;;;;5.45;4.10;;;;;;;;;;5137156;27;20038;-63
2023/03/16 07:19:21;;;;;;;5.97;4.18;;;;;;;;;;5137142;27;20043;-63
2023/03/16 07:21:48;;;;;;;5.68;3.55;;;;;;;;;;5137431;27;20049;-63
2023/03/16 07:24:14;;;;;;;5.63;3.58;;;;;;;;;;5132569;27;20119;-63
2023/03/16 07:26:41;;;;;;;5.35;3.40;;;;;;;;;;5136690;27;20050;-63
2023/03/16 07:29:08;;;;;;;6.00;3.95;;;;;;;;;;5137622;27;20133;-63
2023/03/16 07:31:35;;;;;;;5.15;3.65;;;;;;;;;;5134143;27;20838;-63
2023/03/16 07:34:01;;;;;;;6.80;3.70;;;;;;;;;;5135726;27;20054;-63
2023/03/16 07:36:28;;;;;;;3.88;3.30;;;;;;;;;;5135672;27;20070;-63
2023/03/16 07:38:54;;;;;;;4.57;3.20;;;;;;;;;;5136952;27;20080;-62
2023/03/16 07:41:20;;;;;;;8.30;4.18;;;;;;;;;;5137519;27;20037;-63
2023/03/16 07:43:46;;;;;;;4.57;3.33;;;;;;;;;;5136580;27;20126;-63
2023/03/16 07:46:12;;;;;;;4.18;3.42;;;;;;;;;;5135974;27;20076;-63
2023/03/16 07:48:41;;;;;;;4.53;3.67;;;;;;;;;;5137546;27;20122;-64
2023/03/16 07:51:08;;;;;;;6.10;3.53;;;;;;;;;;5135890;27;20758;-63
2023/03/16 07:53:34;;;;;;;5.50;3.75;;;;;;;;;;5138030;27;20058;-63
2023/03/16 07:56:00;;;;;;;5.13;3.38;;;;;;;;;;5135396;27;20070;-63
2023/03/16 07:58:26;;;;;;;4.95;3.30;;;;;;;;;;5138710;27;20549;-63
2023/03/16 08:00:56;;;;;;;4.78;3.47;;;;;;;;;;5135007;27;20051;-63
2023/03/16 08:03:22;;;;;;;4.82;3.80;;;;;;;;;;5135467;27;20042;-62
2023/03/16 08:05:48;;;;;;;4.38;3.42;;;;;;;;;;5137733;27;20418;-63
2023/03/16 08:08:15;;;;;;;3.83;3.38;;;;;;;;;;5135301;27;20133;-63
2023/03/16 08:10:41;;;;;;;7.03;3.70;;;;;;;;;;5136958;27;20466;-63
2023/03/16 08:13:07;;;;;;;4.25;3.03;;;;;;;;;;5138572;27;20058;-62
2023/03/16 08:15:33;;;;;;;6.20;4.03;;;;;;;;;;5135963;27;20049;-63
2023/03/16 08:18:01;;;;;;;5.93;3.53;;;;;;;;;;5141341;27;20035;-63
2023/03/16 08:20:27;;;;;;;4.53;3.58;;;;;;;;;;5134892;27;20138;-63
2023/03/16 08:22:53;;;;;;;6.53;3.60;;;;;;;;;;5133643;27;20044;-63
2023/03/16 08:25:20;;;;;;;4.03;3.58;;;;;;;;;;5137127;27;20038;-63
2023/03/16 08:27:47;;;;;;;5.95;3.92;;;;;;;;;;5134332;27;20047;-63
2023/03/16 08:30:14;;;;;;;7.63;3.38;;;;;;;;;;5136468;27;20049;-63
2023/03/16 08:32:40;;;;;;;4.70;3.28;;;;;;;;;;5139328;27;20046;-63
2023/03/16 08:35:12;;;;;;;4.03;3.60;;;;;;;;;;5138029;27;20050;-63
2023/03/16 08:37:38;;;;;;;6.10;3.20;;;;;;;;;;5133683;27;20050;-63
2023/03/16 08:40:14;;;;;;;5.63;3.00;;;;;;;;;;5144081;27;20038;-64
2023/03/16 08:42:40;;;;;;;8.25;5.00;;;;;;;;;;5139257;27;20157;-64
2023/03/16 08:45:08;;;;;;;4.57;3.50;;;;;;;;;;5145719;27;20084;-64
2023/03/16 08:47:35;;;;;;;3.95;3.15;;;;;;;;;;5137322;27;20113;-65
2023/03/16 08:50:01;;;;;;;6.60;4.30;;;;;;;;;;5142635;27;20039;-63
2023/03/16 08:52:27;;;;;;;4.32;3.00;;;;;;;;;;5137076;27;20059;-58
2023/03/16 08:54:56;;;;;;;4.78;3.60;;;;;;;;;;5134208;27;20043;-58
2023/03/16 08:57:22;;;;;;;6.22;3.75;;;;;;;;;;5137543;27;20500;-58
2023/03/16 08:59:48;;;;;;;6.25;3.70;;;;;;;;;;5137709;27;20050;-59
2023/03/16 09:02:14;;;;;;;5.10;3.95;;;;;;;;;;5143186;27;20043;-60
2023/03/16 09:04:40;;;;;;;4.28;3.10;;;;;;;;;;5143550;27;20046;-63
2023/03/16 09:07:07;;;;;;;4.85;3.58;;;;;;;;;;5132921;27;20494;-63
2023/03/16 09:09:34;;;;;;;4.57;3.35;;;;;;;;;;5126881;27;20055;-63
2023/03/16 09:12:00;;;;;;;3.88;3.47;;;;;;;;;;5132614;27;20509;-63
2023/03/16 09:14:26;;;;;;;4.47;3.42;;;;;;;;;;5136394;27;20394;-63
2023/03/16 09:16:52;;;;;;;4.40;3.17;;;;;;;;;;5129556;27;20050;-63
2023/03/16 09:19:19;;;;;;;8.00;3.17;;;;;;;;;;5140298;27;20039;-63
2023/03/16 09:21:46;;;;;;;7.78;3.72;;;;;;;;;;5140515;27;20086;-63
2023/03/16 09:24:13;;;;;;;4.00;3.28;;;;;;;;;;5141103;27;20512;-63
2023/03/16 09:26:39;;;;;;;5.47;3.70;;;;;;;;;;5117783;27;20408;-63
2023/03/16 09:29:05;;;;;;;4.18;3.78;;;;;;;;;;5152202;27;20050;-64
2023/03/16 09:31:32;;;;;;;5.45;3.20;;;;;;;;;;5141354;27;20038;-63
2023/03/16 09:33:58;;;;;;;5.65;3.78;;;;;;;;;;5145995;27;20130;-63
2023/03/16 09:36:26;;;;;;;4.20;3.63;;;;;;;;;;5140774;27;20047;-64
2023/03/16 09:38:52;;;;;;;5.65;3.72;;;;;;;;;;5143961;27;20039;-64
2023/03/16 09:41:17;;;;;;;6.32;3.85;;;;;;;;;;5144476;27;20126;-63
2023/03/16 09:44:03;;;;;;;7.00;4.25;;;;;;;;;;5123689;27;20386;-63
2023/03/16 09:46:37;;;;;;;6.03;4.30;;;;;;;;;;5143477;27;20050;-64
2023/03/16 09:49:03;;;;;;;6.22;3.97;;;;;;;;;;5137397;27;20408;-63
2023/03/16 09:51:51;;;;;;;4.97;4.10;;;;;;;;;;5136660;27;20074;-63
2023/03/16 09:54:20;;;;;;;9.95;3.90;;;;;;;;;;5129718;27;20051;-63
2023/03/16 09:56:49;;;;;;;4.63;3.28;;;;;;;;;;5129404;27;20058;-64
2023/03/16 09:59:18;;;;;;;4.47;3.70;;;;;;;;;;5133550;27;20185;-63
2023/03/16 10:02:03;;;;;;;4.57;4.10;;;;;;;;;;5113871;27;20070;-63
2023/03/16 10:04:58;;;;;;;6.10;3.85;;;;;;;;;;5157098;27;20046;-63
2023/03/16 10:07:43;;;;;;;6.28;4.53;;;;;;;;;;5112321;27;20055;-63
2023/03/16 10:10:09;;;;;;;6.25;3.90;;;;;;;;;;5147964;27;20043;-63
2023/03/16 10:12:40;;;;;;;5.40;3.85;;;;;;;;;;5146337;27;20129;-62
2023/03/16 10:15:06;;;;;;;5.57;4.05;;;;;;;;;;5149275;27;20038;-63
2023/03/16 10:17:38;;;;;;;6.93;4.28;;;;;;;;;;5146528;27;20269;-63
2023/03/16 10:20:11;;;;;;;5.93;3.90;;;;;;;;;;5148341;27;20084;-62
2023/03/16 10:22:39;;;;;;;6.80;3.83;;;;;;;;;;5120400;27;20722;-62
2023/03/16 10:25:24;;;;;;;5.35;4.15;;;;;;;;;;5151721;27;20110;-62
2023/03/16 10:27:51;;;;;;;5.47;3.95;;;;;;;;;;5146250;27;20038;-62
2023/03/16 10:30:22;;;;;;;4.70;3.67;;;;;;;;;;5147638;27;20043;-62
2023/03/16 10:32:48;;;;;;;5.15;3.75;;;;;;;;;;5148503;27;20053;-62
2023/03/16 10:35:20;;;;;;;5.35;3.83;;;;;;;;;;5151706;27;20031;-63
2023/03/16 10:37:48;;;;;;;5.43;4.03;;;;;;;;;;5126643;27;20038;-63
2023/03/16 10:40:15;;;;;;;7.57;4.25;;;;;;;;;;5150837;27;20034;-62
2023/03/16 10:42:41;;;;;;;5.40;3.88;;;;;;;;;;5146963;27;20057;-62
2023/03/16 10:45:19;;;;;;;5.63;4.07;;;;;;;;;;5148537;27;20041;-62
2023/03/16 10:47:45;;;;;;;5.13;3.85;;;;;;;;;;5142070;27;20042;-62
2023/03/16 10:50:15;;;;;;;8.60;4.25;;;;;;;;;;5146294;27;20042;-62
2023/03/16 10:52:44;;;;;;;6.20;3.20;;;;;;;;;;5141889;27;20039;-63
2023/03/16 10:55:15;;;;;;;8.18;3.97;;;;;;;;;;5144305;27;20707;-63
2023/03/16 10:57:42;;;;;;;7.03;4.63;;;;;;;;;;5156030;27;20065;-63
2023/03/16 11:00:12;;;;;;;9.20;4.28;;;;;;;;;;5153165;27;20038;-63
2023/03/16 11:02:39;;;;;;;6.78;3.53;;;;;;;;;;5151393;27;20130;-63
2023/03/16 11:05:12;;;;;;;7.40;4.25;;;;;;;;;;5134842;27;20167;-63
2023/03/16 11:07:39;;;;;;;5.05;4.18;;;;;;;;;;5138634;27;20134;-62
2023/03/16 11:10:26;;;;;;;5.03;3.70;;;;;;;;;;5132839;27;20046;-62
2023/03/16 11:12:52;;;;;;;8.02;3.30;;;;;;;;;;5124993;27;20051;-63
2023/03/16 11:15:19;;;;;;;5.20;3.72;;;;;;;;;;5140218;27;20159;-62
2023/03/16 11:17:46;;;;;;;5.22;3.75;;;;;;;;;;5127252;27;20186;-63
2023/03/16 11:20:16;;;;;;;4.65;4.03;;;;;;;;;;5139258;27;20082;-62
2023/03/16 11:22:44;;;;;;;5.50;3.35;;;;;;;;;;5144003;27;20516;-62
2023/03/16 11:25:25;;;;;;;4.20;3.25;;;;;;;;;;5140461;27;20039;-62
2023/03/16 11:27:51;;;;;;;4.57;3.55;;;;;;;;;;5158346;27;20102;-62
2023/03/16 11:30:29;;;;;;;3.90;3.42;;;;;;;;;;5158988;27;20038;-62
2023/03/16 11:32:59;;;;;;;8.75;4.07;;;;;;;;;;5158208;27;20057;-63
2023/03/16 11:35:28;;;;;;;5.97;3.53;;;;;;;;;;5156473;27;20046;-62
2023/03/16 11:38:00;;;;;;;4.25;3.58;;;;;;;;;;5152056;27;20043;-62
2023/03/16 11:40:37;;;;;;;4.20;3.30;;;;;;;;;;5139024;27;20030;-62
2023/03/16 11:43:13;;;;;;;6.70;3.50;;;;;;;;;;5139725;27;20057;-62
2023/03/16 11:45:41;;;;;;;3.83;2.78;;;;;;;;;;5158062;27;20508;-63
2023/03/16 11:48:20;;;;;;;5.72;2.97;;;;;;;;;;5146731;27;20879;-63
2023/03/16 11:50:50;;;;;;;4.05;2.85;;;;;;;;;;5154103;27;20050;-62
2023/03/16 11:53:31;;;;;;;3.38;3.08;;;;;;;;;;5136870;27;20051;-62
2023/03/16 11:56:04;;;;;;;5.60;3.67;;;;;;;;;;5141206;27;20390;-63
2023/03/16 11:58:31;;;;;;;6.47;3.28;;;;;;;;;;5134593;27;20043;-63
2023/03/16 12:01:03;;;;;;;5.57;3.05;;;;;;;;;;5148508;27;20050;-62
2023/03/16 12:03:52;;;;;;;3.53;3.17;;;;;;;;;;5150651;27;20045;-62
2023/03/16 12:06:22;;;;;;;5.35;2.88;;;;;;;;;;5128076;27;20062;-62
2023/03/16 12:08:48;;;;;;;5.13;3.20;;;;;;;;;;5144600;27;21082;-62
2023/03/16 12:11:20;;;;;;;4.07;3.55;;;;;;;;;;5140751;27;20567;-62
2023/03/16 12:13:59;;;;;;;6.00;3.13;;;;;;;;;;5148261;27;20081;-62
2023/03/16 12:16:28;;;;;;;7.07;3.15;;;;;;;;;;5147904;27;20044;-64
2023/03/16 12:19:05;;;;;;;4.80;3.00;;;;;;;;;;5147949;27;20054;-62
2023/03/16 12:21:33;;;;;;;3.55;2.75;;;;;;;;;;5148886;27;20050;-62
2023/03/16 12:24:03;;;;;;;5.10;3.30;;;;;;;;;;5147703;27;20038;-63
2023/03/16 12:26:38;;;;;;;5.43;3.00;;;;;;;;;;5148519;27;20702;-63
2023/03/16 12:29:12;;;;;;;5.30;2.70;;;;;;;;;;5146936;27;20116;-63
2023/03/16 12:31:49;;;;;;;3.88;3.28;;;;;;;;;;5150341;27;20070;-63
2023/03/16 12:34:24;;;;;;;3.38;2.72;;;;;;;;;;5154768;27;20149;-63
2023/03/16 12:36:53;;;;;;;5.35;2.85;;;;;;;;;;5156554;27;20090;-62
2023/03/16 12:39:22;;;;;;;3.45;2.70;;;;;;;;;;5140566;27;20080;-62
2023/03/16 12:41:54;;;;;;;3.80;3.05;;;;;;;;;;5137060;27;20082;-63
2023/03/16 12:44:26;;;;;;;5.10;2.97;;;;;;;;;;5138705;27;20114;-62
2023/03/16 12:46:56;;;;;;;5.27;2.70;;;;;;;;;;5152338;27;20147;-63
2023/03/16 12:49:24;;;;;;;5.28;2.53;;;;;;;;;;5136542;27;20043;-65
2023/03/16 12:52:00;;;;;;;2.47;2.28;;;;;;;;;;5154822;27;20038;-64
2023/03/16 12:54:27;;;;;;;4.32;2.42;;;;;;;;;;5154011;27;20046;-66
2023/03/16 12:56:59;;;;;;;3.50;2.53;;;;;;;;;;5159896;27;20038;-63
2023/03/16 12:59:35;;;;;;;3.20;2.90;;;;;;;;;;5155552;27;20114;-63
2023/03/16 13:02:05;;;;;;;3.03;2.20;;;;;;;;;;5152283;27;20073;-63
2023/03/16 13:04:38;;;;;;;3.22;2.83;;;;;;;;;;5158690;27;20129;-63
2023/03/16 13:07:06;;;;;;;6.70;3.05;;;;;;;;;;5136227;27;20049;-63
2023/03/16 13:09:35;;;;;;;4.07;2.72;;;;;;;;;;5157195;27;20054;-62
2023/03/16 13:12:04;;;;;;;3.15;2.40;;;;;;;;;;5151030;27;20135;-62
2023/03/16 13:14:42;;;;;;;4.15;2.65;;;;;;;;;;5152242;27;20644;-63
2023/03/16 13:17:17;;;;;;;2.90;2.55;;;;;;;;;;5149126;27;20049;-62
2023/03/16 13:19:45;;;;;;;2.30;2.10;;;;;;;;;;5144549;27;20043;-63
2023/03/16 13:22:17;;;;;;;2.90;2.50;;;;;;;;;;5144281;27;20573;-63
2023/03/16 13:24:49;;;;;;;5.20;3.10;;;;;;;;;;5146332;27;20429;-63
2023/03/16 13:27:20;;;;;;;5.47;2.70;;;;;;;;;;5126764;27;20043;-63
2023/03/16 13:29:53;;;;;;;3.22;2.70;;;;;;;;;;5126733;27;20087;-63
2023/03/16 13:32:21;;;;;;;3.85;2.75;;;;;;;;;;5125852;27;20046;-63
2023/03/16 13:34:52;;;;;;;3.97;2.70;;;;;;;;;;5136490;27;20074;-63
2023/03/16 13:37:19;;;;;;;3.15;2.55;;;;;;;;;;5144641;27;20047;-62
2023/03/16 13:39:53;;;;;;;2.67;2.38;;;;;;;;;;5125589;27;20047;-62
2023/03/16 13:42:20;;;;;;;3.78;2.65;;;;;;;;;;5126474;27;20452;-63
2023/03/16 13:44:46;;;;;;;4.53;3.15;;;;;;;;;;5126677;27;20091;-63
2023/03/16 13:47:13;;;;;;;3.75;2.75;;;;;;;;;;5145279;27;20443;-63
2023/03/16 13:49:58;;;;;;;3.28;2.22;;;;;;;;;;5145764;27;20409;-63
2023/03/16 13:52:33;;;;;;;3.65;2.58;;;;;;;;;;5149425;27;20042;-63
2023/03/16 13:55:00;;;;;;;3.08;2.10;;;;;;;;;;5152190;27;20071;-63
2023/03/16 13:57:29;;;;;;;2.92;2.15;;;;;;;;;;5151047;27;20381;-63
2023/03/16 14:00:04;;;;;;;2.90;2.53;;;;;;;;;;5147612;27;20069;-63
2023/03/16 14:02:30;;;;;;;5.65;2.40;;;;;;;;;;5141349;27;20054;-63
2023/03/16 14:04:56;;;;;;;4.63;2.60;;;;;;;;;;5133304;27;20042;-63
2023/03/16 14:07:23;;;;;;;3.20;2.63;;;;;;;;;;5135087;27;20103;-63
2023/03/16 14:09:51;;;;;;;5.72;3.22;;;;;;;;;;5133781;27;20039;-63
2023/03/16 14:12:18;;;;;;;3.20;2.30;;;;;;;;;;5141326;27;20114;-64
2023/03/16 14:14:49;;;;;;;3.63;2.25;;;;;;;;;;5154271;27;20046;-63
2023/03/16 14:17:17;;;;;;;4.45;2.83;;;;;;;;;;5139132;27;20328;-63
2023/03/16 14:19:56;;;;;;;3.58;2.33;;;;;;;;;;5147043;27;20075;-63
2023/03/16 14:22:23;;;;;;;3.88;2.58;;;;;;;;;;5153152;27;20585;-63
2023/03/16 14:24:55;;;;;;;3.97;2.38;;;;;;;;;;5151051;27;20039;-63
2023/03/16 14:27:32;;;;;;;3.03;2.63;;;;;;;;;;5134546;27;20501;-63
2023/03/16 14:30:03;;;;;;;5.43;2.50;;;;;;;;;;5140864;27;20055;-62
2023/03/16 14:32:30;;;;;;;3.72;2.78;;;;;;;;;;5158294;27;20677;-61
2023/03/16 14:35:02;;;;;;;5.68;3.30;;;;;;;;;;5151444;27;20051;-62
2023/03/16 14:37:36;;;;;;;3.80;2.95;;;;;;;;;;5156548;27;20055;-63
2023/03/16 14:40:04;;;;;;;5.38;2.78;;;;;;;;;;5163724;27;20485;-63
2023/03/16 14:42:31;;;;;;;3.67;2.67;;;;;;;;;;5162230;27;20058;-62
2023/03/16 14:45:01;;;;;;;4.78;2.83;;;;;;;;;;5159602;27;20440;-63
2023/03/16 14:47:30;;;;;;;4.13;2.28;;;;;;;;;;5155791;27;20050;-62
2023/03/16 14:49:59;;;;;;;3.92;2.63;;;;;;;;;;5152525;27;20100;-62